This is the latest recevied weather packets stored in our database for station/object KC1HBM. If no packets are shown the sender has not sent any weather packets the latest 10 day(s).
| Time | Temp. | Humidity | Pressure | Rain* | Wind** | Luminosity | Snow |
|---|---|---|---|---|---|---|---|
| 1777983215 | 14.44° C | 76% | 1006.1 hPa | 0 mm | - | 263 W/m² | - |
| 1777982911 | 13.33° C | 80% | 1006.1 hPa | 0 mm | - | 253 W/m² | - |
| 1777982607 | 12.78° C | 81% | 1006.3 hPa | 0 mm | - | 235 W/m² | - |
| 1777982306 | 13.33° C | 79% | 1006.5 hPa | 0 mm | - | 198 W/m² | - |
| 1777982003 | 13.33° C | 80% | 1006.6 hPa | 0 mm | - | 195 W/m² | - |
| 1777981701 | 12.78° C | 80% | 1006.4 hPa | 0 mm | - | 189 W/m² | - |
| 1777981397 | 12.78° C | 82% | 1006.6 hPa | 0 mm | - | 174 W/m² | - |
| 1777981093 | 12.22° C | 83% | 1006.6 hPa | 0 mm | - | 153 W/m² | - |
| 1777980790 | 11.67° C | 85% | 1006.7 hPa | 0 mm | - | 141 W/m² | - |
| 1777980486 | 11.67° C | 84% | 1006.8 hPa | 0 mm | - | 129 W/m² | - |
| 1777980184 | 11.67° C | 84% | 1006.5 hPa | 0 mm | - | 116 W/m² | - |
| 1777979879 | 11.67° C | 83% | 1006.5 hPa | 0 mm | - | 84 W/m² | - |
| 1777979574 | 11.67° C | 84% | 1006.6 hPa | 0 mm | - | 75 W/m² | - |
| 1777979270 | 11.67° C | 84% | 1006.5 hPa | 0 mm | - | 71 W/m² | - |
| 1777978969 | 11.67° C | 84% | 1006.3 hPa | 0 mm | - | 42 W/m² | - |
| 1777978665 | 11.67° C | 84% | 1006.5 hPa | 0 mm | - | 70 W/m² | - |
| 1777978360 | 11.11° C | 85% | 1006.5 hPa | 0 mm | - | 74 W/m² | - |
| 1777978057 | 11.11° C | 86% | 1006.5 hPa | 0 mm | - | 64 W/m² | - |
| 1777977755 | 10.56° C | 87% | 1006.6 hPa | 0 mm | - | 53 W/m² | - |
| 1777977451 | 10.56° C | 87% | 1006.4 hPa | 0 mm | - | 47 W/m² | - |
| 1777977149 | 10° C | 89% | 1006.4 hPa | 0 mm | - | 39 W/m² | - |
| 1777976846 | 10° C | 89% | 1006.4 hPa | 0 mm | - | 20 W/m² | - |
| 1777976544 | 10° C | 88% | 1006.4 hPa | 0 mm | - | 12 W/m² | - |
| 1777976243 | 10° C | 88% | 1006.4 hPa | 0 mm | - | 12 W/m² | - |
| 1777975938 | 10° C | 88% | 1006.5 hPa | 0 mm | - | 12 W/m² | - |
* Rain latest hour (hover to see other rain measurements)
** Current wind speed in m/s (hover to see current wind gust speed)